Terminal Aerodrome Forecast
Issued by NWS

Home | Current Version | Previous Version | Text Only | Print | Product List | Glossary On
Versions: 1 2 3 4 5 6 7 8 9 10 11 12
000
FTUS42 KGSP 231130
TAFGMU
TAF
KGMU 231130Z 2312/2412 26004KT P6SM SCT250
     FM231600 23006KT P6SM SCT045
     FM232100 22011KT P6SM BKN050 PROB30 2321/2403 4SM -TSRA
      OVC025CB
     FM240300 25005KT P6SM VCTS SCT050CB BKN070
     FM240600 23004KT P6SM SCT100 BKN250=

USA.gov is the U.S. government's official web portal to all federal, state and local government web resources and services.